Dakar, Senegal

12:05 PM GMT on December 08, 2016 (GMT +0000)
Unnamed Road | | Change Station

Elev 75 ft 14.73 °N, 17.49 °W | Updated 8 minutes ago

Clear
Clear
84.0 °F
Feels Like 85 °F
N
8.7
Wind Variable Wind from ENE
Gusts 14.3 mph

Today
High -- | Low -- °F
--% Chance of Precip.
Yesterday
High -- | Low -- °F
Precip. -- in
Pressure 29.92 in
Visibility 5.6 miles
Clouds
Heat Index 85 °F
Dew Point 64 °F
Humidity 50%
Rainfall Not available.
Snow Depth Not available.
7:23 AM 6:40 PM
Waxing Gibbous, 62% visible
METAR GOOY 081200Z 05009KT 9000 NSC 31/17 Q1013 NOSIG
Pressure 29.92 in
Visibility 5.6 miles
Clouds
Heat Index 85 °F
Dew Point 64 °F
Humidity 50%
Rainfall Not available.
Snow Depth Not available.
7:23 AM 6:40 PM
Waxing Gibbous, 62% visible
METAR GOOY 081200Z 05009KT 9000 NSC 31/17 Q1013 NOSIG

10-Day Weather Forecast

No radar image for this location.
×

Almanac

Astronomy

Dec. 08, 2016 Rise Set
Actual Time
Civil Twilight
Nautical Twilight
Astronomical Twilight
Moon
Length of Visible Light
Length of Day
Tomorrow will be .
, % of the Moon is Illuminated

Today's Extremes

Country Highs Country Lows

Community

WunderPhotos

Upload Photos

1,956,267 photos uploaded!

WunderBlog® & News

Nearby

Air Quality

  Air Quality AQ Index Pollutant
Not available.

Snow Depth

Station Depth Elevation

Earthquake Activity

City Distance Mag. Time & Date
Minimum magnitude displayed is 2.5.

Coastal Water Temperatures

Place Temperature

Stations

Nearby Weather Stations

Station Location Temp. Windchill Dew Point Humidity Wind Precip. Elev Updated Type